Time;durP1;ratioP1;P1;durP2;ratioP2;P2;SDS_P1;SDS_P2;PMS_P1;PMS_P2;Temp;Humidity;BMP_temperature;BMP_pressure;BME280_temperature;BME280_humidity;BME280_pressure;Samples;Min_cycle;Max_cycle;Signal;HPM_P1;HPM_P2
2022/04/04 00:02:07;;;;;;;;;10.50;10.50;;;;;6.13;100.00;101997.84;6334393;22;47705;-93
2022/04/04 00:04:33;;;;;;;;;14.75;11.25;;;;;6.13;100.00;102009.16;6337105;22;45234;-93
2022/04/04 00:07:00;;;;;;;;;13.25;9.25;;;;;6.20;100.00;102002.78;6360843;22;45289;-93
2022/04/04 00:09:25;;;;;;;;;13.00;10.00;;;;;6.16;100.00;102005.91;6360374;22;45906;-93
2022/04/04 00:11:51;;;;;;;;;12.75;9.00;;;;;6.16;100.00;102000.69;6334035;22;48236;-92
2022/04/04 00:14:16;;;;;;;;;15.75;11.50;;;;;6.00;100.00;101991.56;6335213;22;45267;-93
2022/04/04 00:16:42;;;;;;;;;10.50;9.75;;;;;6.00;100.00;101986.38;6336764;22;45478;-93
2022/04/04 00:19:08;;;;;;;;;12.00;9.75;;;;;6.00;100.00;102009.81;6333963;22;45422;-93
2022/04/04 00:21:34;;;;;;;;;9.50;9.50;;;;;6.00;100.00;102009.81;6334315;22;48185;-93
2022/04/04 00:24:00;;;;;;;;;7.75;7.00;;;;;5.95;100.00;101989.34;6361209;22;45934;-93
2022/04/04 00:26:25;;;;;;;;;14.25;14.00;;;;;5.85;100.00;102003.31;6336578;22;45459;-93
2022/04/04 00:28:50;;;;;;;;;11.00;9.25;;;;;5.91;100.00;101996.00;6361203;22;45930;-93
2022/04/04 00:31:19;;;;;;;;;13.50;12.25;;;;;5.85;100.00;101995.47;6337060;22;46344;-93
2022/04/04 00:33:44;;;;;;;;;10.25;10.25;;;;;5.85;100.00;101998.97;6361255;22;45311;-94
2022/04/04 00:36:10;;;;;;;;;16.75;11.75;;;;;5.73;100.00;101980.63;6333215;22;45388;-92
2022/04/04 00:38:35;;;;;;;;;12.25;11.75;;;;;5.81;100.00;101997.81;6361462;22;45279;-93
2022/04/04 00:41:07;;;;;;;;;11.25;9.50;;;;;5.78;100.00;101994.03;6360973;22;46844;-93
2022/04/04 00:43:33;;;;;;;;;9.75;9.75;;;;;5.67;100.00;101996.63;6360588;22;45363;-92
2022/04/04 00:45:59;;;;;;;;;10.50;10.00;;;;;5.67;100.00;101977.50;6360735;22;45270;-93
2022/04/04 00:48:25;;;;;;;;;11.25;9.25;;;;;5.55;100.00;101975.66;6335055;22;45548;-93
2022/04/04 00:50:50;;;;;;;;;11.00;11.00;;;;;5.66;100.00;101984.41;6333183;22;47900;-93
2022/04/04 00:53:16;;;;;;;;;13.75;13.25;;;;;5.64;100.00;101972.03;6334742;22;45199;-93
2022/04/04 00:55:42;;;;;;;;;13.50;10.50;;;;;5.66;100.00;101976.59;6336619;22;45227;-93
2022/04/04 00:58:09;;;;;;;;;5.50;2.75;;;;;5.59;100.00;101982.94;6307599;22;45646;-92
2022/04/04 01:00:35;;;;;;;;;11.00;9.75;;;;;5.57;100.00;101976.69;6308177;22;47071;-93
2022/04/04 01:03:01;;;;;;;;;14.50;9.25;;;;;5.63;100.00;101980.59;6334756;22;45382;-93
2022/04/04 01:05:27;;;;;;;;;10.50;10.50;;;;;5.53;100.00;101977.22;6307128;22;45361;-93
2022/04/04 01:07:53;;;;;;;;;11.75;9.75;;;;;5.65;100.00;101984.25;6308415;22;45317;-92
2022/04/04 01:10:18;;;;;;;;;10.75;10.25;;;;;5.68;100.00;101989.72;6308333;22;47028;-93
2022/04/04 01:12:54;;;;;;;;;9.25;9.00;;;;;5.59;100.00;101971.63;6307753;22;45241;-93
2022/04/04 01:15:22;;;;;;;;;14.00;12.00;;;;;5.61;100.00;101966.53;6322184;22;45205;-93
2022/04/04 01:17:47;;;;;;;;;8.75;8.75;;;;;5.47;100.00;101967.19;6327829;22;45433;-93
2022/04/04 01:20:15;;;;;;;;;17.25;10.25;;;;;5.38;100.00;101971.63;6327981;22;45485;-92
2022/04/04 01:22:48;;;;;;;;;13.00;9.25;;;;;5.39;100.00;101963.00;6356189;22;44687;-93
2022/04/04 01:25:15;;;;;;;;;11.00;9.50;;;;;5.45;100.00;101968.75;6327666;22;45380;-93
2022/04/04 01:27:45;;;;;;;;;9.75;8.25;;;;;5.51;100.00;101963.16;6323428;22;44704;-93
2022/04/04 01:30:11;;;;;;;;;11.50;10.25;;;;;5.51;100.00;101978.78;6350140;22;45627;-91
2022/04/04 01:32:36;;;;;;;;;15.50;12.50;;;;;5.36;100.00;101953.22;6336156;22;45248;-92
2022/04/04 01:35:02;;;;;;;;;17.00;11.75;;;;;5.37;100.00;101948.94;6337497;22;45210;-92
2022/04/04 01:37:28;;;;;;;;;12.75;8.75;;;;;5.42;100.00;101976.28;6309693;22;45446;-93
2022/04/04 01:39:54;;;;;;;;;10.50;9.50;;;;;5.31;100.00;101957.13;6308069;22;46881;-92
2022/04/04 01:42:19;;;;;;;;;12.75;8.75;;;;;5.30;100.00;101957.00;6309118;22;45347;-92
2022/04/04 01:44:46;;;;;;;;;9.25;9.25;;;;;5.30;100.00;101955.31;6309682;22;45213;-93
2022/04/04 01:47:12;;;;;;;;;9.75;9.75;;;;;5.21;100.00;101954.50;6336667;22;45359;-91
2022/04/04 01:49:37;;;;;;;;;8.75;7.25;;;;;5.19;100.00;101953.47;6309592;22;47071;-92
2022/04/04 01:52:03;;;;;;;;;6.50;6.50;;;;;5.21;100.00;101950.22;6310363;22;45781;-93
2022/04/04 01:54:28;;;;;;;;;12.50;11.50;;;;;5.07;100.00;101956.84;6337499;22;45264;-93
2022/04/04 01:56:54;;;;;;;;;9.75;9.75;;;;;4.98;100.00;101943.91;6310552;22;45272;-93
2022/04/04 01:59:19;;;;;;;;;8.25;7.75;;;;;4.98;100.00;101943.91;6310598;22;47841;-93
2022/04/04 02:01:44;;;;;;;;;9.00;8.50;;;;;4.94;100.00;101939.25;6337603;22;45283;-91
2022/04/04 02:04:11;;;;;;;;;10.50;10.50;;;;;4.95;100.00;101937.56;6341969;22;45766;-92
2022/04/04 02:06:37;;;;;;;;;7.75;5.00;;;;;4.84;100.00;101928.78;6317678;22;45462;-92
2022/04/04 02:09:02;;;;;;;;;9.00;6.50;;;;;4.83;100.00;101930.47;6345975;22;47127;-92
2022/04/04 02:11:28;;;;;;;;;10.25;7.00;;;;;4.81;100.00;101919.03;6316497;22;45917;-92
2022/04/04 02:13:53;;;;;;;;;9.00;8.25;;;;;4.85;100.00;101934.13;6315800;22;45366;-92
2022/04/04 02:16:20;;;;;;;;;10.00;9.00;;;;;4.71;100.00;101904.31;6314501;22;45247;-91
2022/04/04 02:18:46;;;;;;;;;4.25;2.50;;;;;4.77;100.00;101915.22;6310966;22;46946;-92
2022/04/04 02:21:11;;;;;;;;;6.50;5.75;;;;;4.80;100.00;101920.72;6334996;22;45426;-92
2022/04/04 02:23:37;;;;;;;;;6.25;6.25;;;;;4.72;100.00;101910.41;6310394;22;45360;-93
2022/04/04 02:26:03;;;;;;;;;5.75;5.75;;;;;4.77;100.00;101923.03;6308658;22;45612;-93
2022/04/04 02:28:29;;;;;;;;;10.50;5.50;;;;;4.80;100.00;101931.13;6308005;22;47397;-93
2022/04/04 02:30:55;;;;;;;;;7.50;7.50;;;;;4.67;100.00;101902.19;6336746;22;45191;-93
2022/04/04 02:33:22;;;;;;;;;8.00;8.00;;;;;4.72;100.00;101907.78;6309845;22;45302;-93
2022/04/04 02:35:51;;;;;;;;;10.00;9.25;;;;;4.72;100.00;101910.41;6309471;22;45320;-92
2022/04/04 02:38:19;;;;;;;;;8.00;6.75;;;;;4.64;100.00;101897.63;6309582;22;48245;-93
2022/04/04 02:40:44;;;;;;;;;6.00;5.50;;;;;5.45;100.00;101916.66;6309266;22;45307;-92
2022/04/04 02:43:10;;;;;;;;;7.50;6.25;;;;;4.60;100.00;101887.75;6308913;22;45650;-92
2022/04/04 02:45:36;;;;;;;;;7.50;7.00;;;;;4.65;100.00;101902.06;6309184;22;45393;-92
2022/04/04 02:48:02;;;;;;;;;8.00;8.00;;;;;4.59;100.00;101896.31;6308268;22;47096;-93
2022/04/04 02:50:27;;;;;;;;;7.25;6.75;;;;;4.51;100.00;101886.94;6311530;22;45521;-93
2022/04/04 02:52:53;;;;;;;;;11.75;5.75;;;;;4.55;100.00;101886.44;6354551;22;44904;-93
2022/04/04 02:58:03;;;;;;;;;8.00;7.75;;;;;4.56;100.00;101890.88;6365417;22;44833;-92
2022/04/04 03:00:28;;;;;;;;;10.00;9.00;;;;;4.59;100.00;101904.13;6365492;22;44859;-94
2022/04/04 03:02:57;;;;;;;;;8.50;6.75;;;;;4.59;100.00;101904.13;6390354;22;44735;-93
2022/04/04 03:05:22;;;;;;;;;8.75;6.75;;;;;4.57;100.00;101893.59;6363400;22;44760;-93
2022/04/04 03:07:49;;;;;;;;;5.25;5.25;;;;;4.54;100.00;101898.50;6364986;22;45157;-92
2022/04/04 03:10:16;;;;;;;;;10.25;7.25;;;;;4.58;100.00;101910.09;6363733;22;44764;-93
2022/04/04 03:12:42;;;;;;;;;7.00;6.50;;;;;4.47;100.00;101885.75;6391507;22;45001;-92
2022/04/04 03:15:14;;;;;;;;;7.25;6.50;;;;;4.54;100.00;101903.72;6364834;22;45275;-92
2022/04/04 03:17:41;;;;;;;;;11.75;9.00;;;;;4.49;100.00;101889.38;6386307;22;46878;-93
2022/04/04 03:20:09;;;;;;;;;6.00;6.00;;;;;4.46;100.00;101886.50;6345489;22;45619;-93
2022/04/04 03:22:43;;;;;;;;;7.75;5.75;;;;;4.40;100.00;101870.38;6345471;22;45396;-93
2022/04/04 03:25:10;;;;;;;;;4.50;4.50;;;;;4.43;100.00;101879.34;6345203;22;45410;-92
2022/04/04 03:27:36;;;;;;;;;7.75;5.00;;;;;4.39;100.00;101872.06;6354153;22;47347;-91
2022/04/04 03:30:10;;;;;;;;;6.75;4.50;;;;;4.45;100.00;101879.50;6376536;22;45719;-91
2022/04/04 03:32:36;;;;;;;;;4.00;4.00;;;;;4.40;100.00;101873.91;6344007;22;45662;-91
2022/04/04 03:35:04;;;;;;;;;5.75;5.75;;;;;4.32;100.00;101857.63;6341559;22;45424;-92
2022/04/04 03:37:30;;;;;;;;;8.50;8.00;;;;;4.39;100.00;101866.88;6339393;22;47097;-92
2022/04/04 03:39:56;;;;;;;;;9.00;8.25;;;;;4.40;100.00;101870.38;6338147;22;45297;-92
2022/04/04 03:42:21;;;;;;;;;7.50;5.25;;;;;4.36;100.00;101854.50;6335857;22;45370;-92
2022/04/04 03:44:47;;;;;;;;;6.75;6.00;;;;;4.33;100.00;101858.53;6336292;22;45529;-93
2022/04/04 03:47:12;;;;;;;;;9.25;5.75;;;;;4.28;100.00;101844.22;6335947;22;47165;-92
2022/04/04 03:49:41;;;;;;;;;8.25;6.00;;;;;4.35;100.00;101859.56;6339941;22;45839;-91
2022/04/04 03:52:11;;;;;;;;;7.50;6.00;;;;;4.30;100.00;101850.47;6363216;22;44732;-92
2022/04/04 03:54:37;;;;;;;;;8.50;5.75;;;;;4.22;100.00;101844.56;6336551;22;44926;-93
2022/04/04 03:57:03;;;;;;;;;5.00;5.00;;;;;4.13;100.00;101827.38;6360790;22;47277;-93
2022/04/04 03:59:28;;;;;;;;;9.25;5.75;;;;;4.09;100.00;101820.09;6336435;22;46082;-93
2022/04/04 04:01:54;;;;;;;;;7.50;4.75;;;;;4.21;100.00;101841.06;6335893;22;45609;-92
2022/04/04 04:04:19;;;;;;;;;13.25;11.25;;;;;4.18;100.00;101832.97;6337222;22;45407;-93
2022/04/04 04:06:45;;;;;;;;;7.25;7.25;;;;;4.19;100.00;101834.81;6309454;22;47797;-94
2022/04/04 04:09:11;;;;;;;;;15.00;9.25;;;;;4.11;100.00;101818.53;6309494;22;45582;-93
2022/04/04 04:11:37;;;;;;;;;8.00;5.50;;;;;4.17;100.00;101827.66;6309668;22;45404;-94
2022/04/04 04:14:03;;;;;;;;;5.00;5.00;;;;;4.23;100.00;101833.38;6334863;22;45472;-94
2022/04/04 04:16:28;;;;;;;;;5.50;3.50;;;;;4.12;100.00;101811.66;6335533;22;47097;-94
2022/04/04 04:18:53;;;;;;;;;6.75;6.75;;;;;4.16;100.00;101825.81;6341264;22;45236;-92
2022/04/04 04:21:20;;;;;;;;;8.25;7.50;;;;;4.15;100.00;101826.63;6309632;22;45431;-93
2022/04/04 04:23:46;;;;;;;;;5.25;5.25;;;;;4.10;100.00;101811.50;6316278;22;45172;-92
2022/04/04 04:26:13;;;;;;;;;8.00;5.75;;;;;4.10;100.00;101816.69;6338900;22;47802;-93
2022/04/04 04:28:43;;;;;;;;;8.25;6.00;;;;;4.04;100.00;101804.88;6310246;22;45447;-94
2022/04/04 04:31:08;;;;;;;;;11.25;8.00;;;;;4.17;100.00;101832.84;6311461;22;45407;-91
2022/04/04 04:33:33;;;;;;;;;9.50;5.25;;;;;4.12;100.00;101812.53;6313938;22;45226;-93
2022/04/04 04:36:00;;;;;;;;;6.50;6.50;;;;;4.09;100.00;101803.59;6337971;22;48369;-94
2022/04/04 04:38:25;;;;;;;;;8.00;4.50;;;;;4.11;100.00;101821.13;6337637;22;45225;-93
2022/04/04 04:40:51;;;;;;;;;8.75;8.00;;;;;4.13;100.00;101821.25;6335912;22;45389;-93
2022/04/04 04:43:17;;;;;;;;;10.25;8.00;;;;;4.10;100.00;101811.50;6310806;22;45535;-93
2022/04/04 04:45:43;;;;;;;;;7.25;6.00;;;;;4.06;100.00;101798.09;6335992;22;48251;-92
2022/04/04 04:48:08;;;;;;;;;5.75;5.75;;;;;4.10;100.00;101819.31;6309009;22;45447;-94
2022/04/04 04:50:34;;;;;;;;;9.00;6.50;;;;;3.97;100.00;101791.31;6335949;22;45434;-93
2022/04/04 04:52:59;;;;;;;;;8.75;7.50;;;;;3.96;100.00;101789.50;6335221;22;45324;-93
2022/04/04 04:55:26;;;;;;;;;9.00;6.50;;;;;4.04;100.00;101797.06;6345472;22;48156;-92
2022/04/04 04:57:53;;;;;;;;;5.00;5.00;;;;;4.02;100.00;101807.34;6364888;22;45398;-93
2022/04/04 05:00:22;;;;;;;;;8.00;6.25;;;;;3.99;100.00;101804.47;6345441;22;44764;-92
2022/04/04 05:03:24;;;;;;;;;8.50;8.00;;;;;3.96;100.00;101807.69;6346172;22;45358;-94
2022/04/04 05:05:36;;;;;;;;;13.25;9.25;;;;;4.00;100.00;101798.47;6354790;22;45331;-93
2022/04/04 05:08:05;;;;;;;;;6.25;6.25;;;;;4.02;100.00;101808.22;6371874;22;46210;-94
2022/04/04 05:10:30;;;;;;;;;8.50;7.50;;;;;3.98;100.00;101800.03;6361146;22;45306;-94
2022/04/04 05:12:56;;;;;;;;;8.00;8.00;;;;;3.98;100.00;101800.03;6336777;22;45372;-93
2022/04/04 05:15:23;;;;;;;;;9.00;9.00;;;;;3.91;100.00;101789.09;6334571;22;48053;-93
2022/04/04 05:17:49;;;;;;;;;8.75;6.75;;;;;3.97;100.00;101799.09;6364782;22;45781;-93
2022/04/04 05:20:16;;;;;;;;;8.00;8.00;;;;;3.89;100.00;101789.75;6373734;22;45335;-93
2022/04/04 05:22:41;;;;;;;;;9.00;8.50;;;;;3.91;100.00;101790.78;6309943;22;45395;-94
2022/04/04 05:25:07;;;;;;;;;8.00;7.50;;;;;3.97;100.00;101801.69;6334570;22;47953;-94
2022/04/04 05:27:33;;;;;;;;;8.00;6.00;;;;;4.01;100.00;101809.00;6360981;22;45281;-94
2022/04/04 05:29:58;;;;;;;;;7.75;7.75;;;;;3.94;100.00;101798.84;6334358;22;45231;-94
2022/04/04 05:32:23;;;;;;;;;6.00;6.00;;;;;3.96;100.00;101802.50;6361496;22;45303;-93
2022/04/04 05:34:49;;;;;;;;;9.50;8.50;;;;;3.91;100.00;101802.09;6361502;22;47012;-94
2022/04/04 05:37:15;;;;;;;;;11.00;8.25;;;;;3.93;100.00;101802.22;6333017;22;45747;-94
2022/04/04 05:39:40;;;;;;;;;10.25;8.00;;;;;3.87;100.00;101784.38;6334983;22;45441;-94
2022/04/04 05:42:06;;;;;;;;;8.00;8.00;;;;;3.90;100.00;101787.25;6334539;22;45763;-93
2022/04/04 05:44:33;;;;;;;;;14.00;9.50;;;;;4.01;100.00;101801.22;6334071;22;47078;-93
2022/04/04 05:46:59;;;;;;;;;9.50;7.50;;;;;3.99;100.00;101792.38;6360836;22;45661;-94
2022/04/04 05:49:24;;;;;;;;;11.75;9.50;;;;;4.04;100.00;101794.47;6362492;22;45395;-93
2022/04/04 05:51:50;;;;;;;;;9.50;8.50;;;;;4.03;100.00;101772.75;6335993;22;45659;-94
2022/04/04 05:54:16;;;;;;;;;11.50;7.00;;;;;4.15;100.00;101787.63;6337296;22;47823;-94
2022/04/04 05:56:44;;;;;;;;;11.50;9.00;;;;;4.24;100.00;101791.94;6335486;22;45622;-93
2022/04/04 05:59:10;;;;;;;;;12.00;11.75;;;;;4.27;100.00;101791.31;6339053;22;45278;-93
2022/04/04 06:01:35;;;;;;;;;15.75;12.25;;;;;4.30;100.00;101786.38;6335554;22;45574;-92
2022/04/04 06:04:02;;;;;;;;;10.00;8.00;;;;;4.41;100.00;101789.00;6362245;22;46874;-93
2022/04/04 06:06:28;;;;;;;;;10.50;9.50;;;;;4.47;100.00;101782.66;6337771;22;45472;-93
2022/04/04 06:08:53;;;;;;;;;11.75;9.75;;;;;4.57;100.00;101784.34;6337247;22;45340;-94
2022/04/04 06:11:19;;;;;;;;;11.00;9.00;;;;;4.67;100.00;101786.06;6340169;22;45394;-93
2022/04/04 06:13:44;;;;;;;;;8.25;6.50;;;;;4.77;100.00;101797.25;6336785;22;48178;-94
2022/04/04 06:16:10;;;;;;;;;10.75;9.00;;;;;4.82;100.00;101789.88;6332229;22;45779;-94
2022/04/04 06:18:35;;;;;;;;;11.75;9.25;;;;;4.86;100.00;101789.34;6336410;22;45357;-94
2022/04/04 06:21:02;;;;;;;;;11.50;9.50;;;;;4.91;100.00;101788.03;6335327;22;45529;-94
2022/04/04 06:23:28;;;;;;;;;13.75;10.00;;;;;4.94;100.00;101780.50;6333312;22;48126;-88
2022/04/04 06:25:53;;;;;;;;;11.00;9.50;;;;;5.05;100.00;101783.09;6330589;22;45436;-89
2022/04/04 06:28:19;;;;;;;;;9.25;9.00;;;;;5.12;100.00;101780.25;6358313;22;45256;-87
2022/04/04 06:30:44;;;;;;;;;7.75;7.75;;;;;5.18;100.00;101782.47;6331852;22;45451;-87
2022/04/04 06:33:09;;;;;;;;;8.25;7.25;;;;;5.29;100.00;101788.53;6329512;22;47020;-87
2022/04/04 06:35:35;;;;;;;;;9.25;9.00;;;;;5.34;100.00;101775.13;6332303;22;45232;-88
2022/04/04 06:38:01;;;;;;;;;10.75;8.50;;;;;5.45;100.00;101788.13;6332823;22;45236;-87
2022/04/04 06:40:28;;;;;;;;;5.75;5.75;;;;;5.54;100.00;101791.50;6332555;22;45337;-87
2022/04/04 06:42:56;;;;;;;;;9.75;8.25;;;;;5.65;100.00;101786.25;6334083;22;45505;-88
2022/04/04 06:45:21;;;;;;;;;8.00;6.25;;;;;5.74;100.00;101781.84;6330027;22;45668;-87
2022/04/04 06:47:48;;;;;;;;;9.25;8.25;;;;;5.82;100.00;101779.84;6332465;22;45348;-87
2022/04/04 06:50:13;;;;;;;;;8.00;8.00;;;;;5.90;100.00;101786.56;6330292;22;45683;-87
2022/04/04 06:52:40;;;;;;;;;5.75;4.25;;;;;5.99;100.00;101783.81;6331259;22;45447;-87
2022/04/04 06:55:07;;;;;;;;;7.50;5.00;;;;;6.06;100.00;101782.59;6332802;22;45295;-87
2022/04/04 06:57:32;;;;;;;;;6.00;5.50;;;;;6.09;100.00;101769.88;6329367;22;45497;-87
2022/04/04 06:59:57;;;;;;;;;9.75;6.00;;;;;6.15;100.00;101772.06;6335121;22;45340;-87
2022/04/04 07:02:23;;;;;;;;;14.75;6.50;;;;;6.21;100.00;101769.91;6305904;22;46766;-87
2022/04/04 07:04:49;;;;;;;;;5.50;5.50;;;;;6.28;100.00;101763.53;6332942;22;45611;-87
2022/04/04 07:07:17;;;;;;;;;7.75;5.75;;;;;6.40;100.00;101770.47;6335787;22;45323;-87
2022/04/04 07:09:45;;;;;;;;;5.75;5.75;;;;;6.41;100.00;101754.97;6332688;22;45822;-87
2022/04/04 07:12:10;;;;;;;;;6.00;6.00;;;;;6.45;100.00;101758.72;6333086;22;46218;-87
2022/04/04 07:14:36;;;;;;;;;5.75;5.50;;;;;6.50;100.00;101761.69;6335259;22;45679;-88
2022/04/04 07:17:02;;;;;;;;;8.00;5.75;;;;;6.53;100.00;101755.00;6335828;22;45299;-87
2022/04/04 07:19:33;;;;;;;;;6.00;5.50;;;;;6.55;100.00;101750.81;6338603;22;45663;-87
2022/04/04 07:22:00;;;;;;;;;6.00;4.50;;;;;6.64;100.00;101742.81;6285453;22;47575;-87
2022/04/04 07:24:26;;;;;;;;;3.00;3.00;;;;;6.77;100.00;101755.13;6341281;22;45320;-87
2022/04/04 07:26:53;;;;;;;;;5.00;3.00;;;;;6.84;100.00;101746.03;6336772;22;45367;-87
2022/04/04 07:29:18;;;;;;;;;1.25;0.25;;;;;6.90;100.00;101737.78;6283004;22;45564;-87
2022/04/04 07:31:44;;;;;;;;;2.50;2.50;;;;;7.01;100.00;101736.88;6310809;22;47237;-86
2022/04/04 07:34:12;;;;;;;;;3.50;3.25;;;;;7.11;100.00;101728.03;6339907;22;45410;-87
2022/04/04 07:36:40;;;;;;;;;5.75;4.75;;;;;7.20;100.00;101724.31;6336002;22;45619;-87
2022/04/04 07:39:06;;;;;;;;;6.00;6.00;;;;;7.36;100.00;101723.75;6306077;22;45302;-87
2022/04/04 07:41:32;;;;;;;;;5.50;4.25;;;;;7.48;100.00;101724.66;6333894;22;46837;-87
2022/04/04 07:43:57;;;;;;;;;6.25;6.00;;;;;7.56;100.00;101720.00;6334980;22;45379;-86
2022/04/04 07:46:23;;;;;;;;;5.00;5.00;;;;;7.65;100.00;101717.19;6337700;22;45344;-86
2022/04/04 07:48:48;;;;;;;;;3.00;3.00;;;;;7.75;100.00;101717.84;6330696;22;45479;-86
2022/04/04 07:51:13;;;;;;;;;2.75;2.00;;;;;7.83;100.00;101714.09;6303710;22;48081;-86
2022/04/04 07:53:39;;;;;;;;;1.25;1.25;;;;;7.95;100.00;101711.44;6305396;22;45565;-87
2022/04/04 07:56:05;;;;;;;;;2.50;2.50;;;;;8.05;100.00;101719.13;6335447;22;45588;-87
2022/04/04 07:58:31;;;;;;;;;5.25;2.50;;;;;8.15;100.00;101709.31;6335610;22;45456;-87
2022/04/04 08:00:56;;;;;;;;;2.00;1.00;;;;;8.21;100.00;101711.47;6304282;22;47462;-87
2022/04/04 08:03:23;;;;;;;;;4.25;2.25;;;;;8.27;100.00;101711.91;6304850;22;45300;-88
2022/04/04 08:05:48;;;;;;;;;3.50;3.50;;;;;8.32;100.00;101694.84;6333401;22;45365;-88
2022/04/04 08:08:14;;;;;;;;;1.75;1.25;;;;;8.39;100.00;101711.88;6304141;22;45597;-88
2022/04/04 08:10:40;;;;;;;;;4.25;4.25;;;;;8.48;100.00;101706.34;6330819;22;46867;-88
2022/04/04 08:13:05;;;;;;;;;2.00;2.00;;;;;8.55;100.00;101694.63;6332950;22;45291;-88
2022/04/04 08:15:31;;;;;;;;;3.75;1.75;;;;;8.61;100.00;101692.44;6333685;22;45292;-88
2022/04/04 08:17:57;;;;;;;;;5.00;2.50;;;;;8.73;100.00;101688.84;6334168;22;45284;-87
2022/04/04 08:20:22;;;;;;;;;5.00;3.00;;;;;8.88;100.00;101689.00;6334950;22;45515;-88
2022/04/04 08:22:48;;;;;;;;;2.50;2.50;;;;;8.94;100.00;101694.66;6306423;22;45518;-88
2022/04/04 08:25:14;;;;;;;;;3.00;3.00;;;;;9.11;100.00;101685.28;6334201;22;45310;-88
2022/04/04 08:27:41;;;;;;;;;2.25;2.00;;;;;9.23;100.00;101686.91;6306196;22;45601;-88
2022/04/04 08:30:10;;;;;;;;;2.00;2.00;;;;;9.31;100.00;101682.16;6335063;22;46174;-88
2022/04/04 08:32:38;;;;;;;;;2.50;2.25;;;;;9.37;100.00;101678.25;6305615;22;45504;-88
2022/04/04 08:35:08;;;;;;;;;2.00;2.00;;;;;9.56;100.00;101666.31;6305001;22;45438;-87
2022/04/04 08:37:35;;;;;;;;;2.00;2.00;;;;;9.66;100.00;101670.47;6305162;22;45405;-88
2022/04/04 08:40:02;;;;;;;;;1.00;1.00;;;;;9.64;100.00;101671.19;6315431;22;48402;-87
2022/04/04 08:42:28;;;;;;;;;2.33;2.00;;;;;9.64;100.00;101668.56;6342294;22;45379;-88
2022/04/04 08:44:58;;;;;;;;;1.75;1.75;;;;;9.64;100.00;101660.69;6353726;22;44685;-90
2022/04/04 08:47:24;;;;;;;;;2.00;2.00;;;;;9.66;100.00;101656.44;6323833;22;45477;-89
2022/04/04 08:49:54;;;;;;;;;3.00;2.25;;;;;9.74;100.00;101662.19;6297051;22;47100;-88
2022/04/04 08:52:21;;;;;;;;;4.00;2.33;;;;;9.80;100.00;101644.19;6305775;22;45308;-89
2022/04/04 08:54:47;;;;;;;;;2.25;2.25;;;;;9.88;100.00;101657.78;6305441;22;45390;-89
2022/04/04 08:57:14;;;;;;;;;2.00;2.00;;;;;10.05;100.00;101648.38;6331535;22;45379;-88
2022/04/04 08:59:39;;;;;;;;;3.50;2.00;;;;;10.15;100.00;101648.09;6330226;22;48027;-89
2022/04/04 09:02:05;;;;;;;;;2.00;2.00;;;;;10.17;100.00;101643.88;6358351;22;45514;-88
2022/04/04 09:04:33;;;;;;;;;1.00;1.00;;;;;10.15;100.00;101645.47;6335494;22;45278;-88
2022/04/04 09:07:04;;;;;;;;;2.33;1.00;;;;;10.30;100.00;101639.38;6334287;22;45338;-89
2022/04/04 09:09:44;;;;;;;;;2.00;1.00;;;;;10.64;100.00;101631.75;6330967;22;46812;-89
2022/04/04 09:12:11;;;;;;;;;2.75;2.00;;;;;11.03;100.00;101639.28;6331353;22;45363;-89
2022/04/04 09:14:45;;;;;;;;;2.00;2.00;;;;;11.33;100.00;101620.81;6359592;22;45301;-89
2022/04/04 09:17:12;;;;;;;;;1.25;1.25;;;;;11.45;100.00;101624.94;6335237;22;45335;-89
2022/04/04 09:19:38;;;;;;;;;2.00;1.00;;;;;11.50;100.00;101627.00;6332518;22;46035;-88
2022/04/04 09:22:12;;;;;;;;;2.00;1.00;;;;;11.51;100.00;101639.34;6332578;22;45428;-89
2022/04/04 09:24:56;;;;;;;;;2.00;2.00;;;;;11.62;100.00;101615.38;6332530;22;45614;-89
2022/04/04 09:27:25;;;;;;;;;1.00;1.00;;;;;11.95;100.00;101618.03;6336035;22;45401;-87
2022/04/04 09:29:55;;;;;;;;;0.00;0.00;;;;;12.25;100.00;101598.53;6359781;22;48079;-88
2022/04/04 09:32:21;;;;;;;;;1.33;1.33;;;;;12.49;100.00;101602.38;6359373;22;45388;-90
2022/04/04 09:35:10;;;;;;;;;1.00;1.00;;;;;12.53;97.92;101604.31;6332004;22;45860;-89
2022/04/04 09:37:38;;;;;;;;;2.33;1.33;;;;;12.50;98.79;101605.06;6335812;22;45294;-89
2022/04/04 09:40:19;;;;;;;;;2.67;2.00;;;;;12.56;100.00;101600.94;6334059;22;45680;-88
2022/04/04 09:42:53;;;;;;;;;1.00;1.00;;;;;12.57;98.13;101603.69;6357566;22;45315;-88
2022/04/04 09:45:24;;;;;;;;;1.33;1.33;;;;;12.43;98.85;101602.94;6334011;22;45299;-88
2022/04/04 09:48:07;;;;;;;;;2.33;1.33;;;;;12.10;98.01;101597.69;6334587;22;45291;-87
2022/04/04 09:50:46;;;;;;;;;1.00;0.00;;;;;11.80;95.05;101596.16;6332610;22;45655;-87
2022/04/04 09:53:14;;;;;;;;;1.00;1.00;;;;;11.55;94.70;101592.16;6356185;22;45350;-89
2022/04/04 09:55:43;;;;;;;;;0.67;0.67;;;;;11.45;92.26;101589.03;6356577;22;45747;-88
2022/04/04 09:58:14;;;;;;;;;0.67;0.67;;;;;11.38;94.65;101582.56;6335400;22;45361;-89
2022/04/04 10:00:42;;;;;;;;;2.00;1.00;;;;;11.36;93.40;101573.69;6335215;22;45356;-87
2022/04/04 10:03:12;;;;;;;;;1.00;1.00;;;;;11.38;93.87;101571.13;6329077;22;45419;-90
2022/04/04 10:05:40;;;;;;;;;0.33;0.33;;;;;11.43;91.70;101576.63;6331611;22;45554;-88
2022/04/04 10:08:07;;;;;;;;;2.00;2.00;;;;;11.44;90.71;101579.34;6324105;22;45265;-86
2022/04/04 10:10:34;;;;;;;;;1.00;1.00;;;;;11.54;94.17;101571.97;6332024;22;45278;-91
2022/04/04 10:12:59;;;;;;;;;2.00;2.00;;;;;11.78;93.82;101563.56;6329310;22;45367;-89
2022/04/04 10:15:27;;;;;;;;;0.67;0.67;;;;;12.16;94.15;101561.22;6333420;22;45391;-92
2022/04/04 10:17:54;;;;;;;;;2.67;2.00;;;;;12.49;90.06;101558.50;6358714;22;45355;-91
2022/04/04 10:20:20;;;;;;;;;2.33;0.67;;;;;12.68;92.88;101554.16;6357195;22;46089;-89
2022/04/04 10:22:52;;;;;;;;;0.00;0.00;;;;;12.87;88.09;101554.16;6332204;22;45289;-92
2022/04/04 10:25:23;;;;;;;;;3.00;1.33;;;;;13.23;90.82;101555.84;6362654;22;45368;-92
2022/04/04 10:27:48;;;;;;;;;1.00;1.00;;;;;13.70;89.93;101532.56;6331877;22;45336;-91
2022/04/04 10:30:16;;;;;;;;;1.67;1.67;;;;;14.19;87.38;101532.94;6330935;22;46913;-91
2022/04/04 10:32:51;;;;;;;;;2.00;1.00;;;;;14.52;89.96;101526.34;6332204;22;45547;-92
2022/04/04 10:35:25;;;;;;;;;1.00;0.67;;;;;14.63;80.72;101523.25;6330469;22;45367;-91
2022/04/04 10:37:51;;;;;;;;;2.00;2.00;;;;;14.73;84.32;101530.72;6334263;22;45424;-89
2022/04/04 10:40:29;;;;;;;;;1.00;1.00;;;;;14.82;87.12;101522.25;6329537;22;47341;-89
2022/04/04 10:43:09;;;;;;;;;1.67;1.67;;;;;15.10;84.47;101514.53;6328833;22;45351;-88
2022/04/04 10:45:58;;;;;;;;;1.33;1.00;;;;;15.61;88.16;101506.75;6327869;22;45565;-88
2022/04/04 10:48:36;;;;;;;;;4.00;1.00;;;;;15.85;82.84;101501.41;6356296;22;45305;-87
2022/04/04 10:51:28;;;;;;;;;0.67;0.67;;;;;15.89;80.81;101507.75;6330248;22;47020;-89
2022/04/04 10:54:01;;;;;;;;;1.67;1.67;;;;;15.82;80.52;101497.78;6320248;22;45390;-90
2022/04/04 10:56:29;;;;;;;;;1.00;1.00;;;;;15.84;76.09;101490.78;6363277;22;45351;-90
2022/04/04 10:59:16;;;;;;;;;3.00;2.00;;;;;16.33;76.77;101487.16;6357661;22;45327;-89
2022/04/04 11:01:43;;;;;;;;;2.00;2.00;;;;;16.41;73.29;101483.94;6358994;22;47128;-89
2022/04/04 11:04:30;;;;;;;;;1.00;1.00;;;;;16.27;78.79;101475.50;6335712;22;45826;-89
2022/04/04 11:10:06;;;;;;;;;2.33;2.00;;;;;16.13;78.83;101471.50;6332760;22;45295;-90
2022/04/04 11:13:03;;;;;;;;;4.00;2.00;;;;;16.19;77.28;101463.75;6335576;22;45616;-88
2022/04/04 11:15:59;;;;;;;;;3.00;3.00;;;;;16.38;77.06;101462.63;6319625;22;45458;-88
2022/04/04 11:18:52;;;;;;;;;3.00;3.00;;;;;16.59;79.45;101445.63;6306457;22;45507;-89
2022/04/04 11:21:39;;;;;;;;;1.00;1.00;;;;;16.90;78.50;101439.47;6334478;22;45350;-92
2022/04/04 11:24:09;;;;;;;;;2.00;2.00;;;;;17.22;80.14;101438.63;6342464;22;46892;-90
2022/04/04 11:26:35;;;;;;;;;4.67;2.33;;;;;17.58;80.71;101429.91;6335322;22;46114;-92
2022/04/04 11:29:02;;;;;;;;;2.33;2.33;;;;;17.82;77.71;101435.84;6356856;22;45470;-90
2022/04/04 11:31:27;;;;;;;;;3.00;3.00;;;;;17.76;72.14;101434.81;6358197;22;45493;-92